createdAt,value
2022-10-11T00:00:21.244Z,101430.50
2022-10-11T00:02:25.216Z,101432.06
2022-10-11T00:04:27.784Z,101444.94
2022-10-11T00:06:29.099Z,101445.53
2022-10-11T00:08:30.597Z,101454.88
2022-10-11T00:10:34.180Z,101451.41
2022-10-11T00:12:36.482Z,101461.50
2022-10-11T00:14:38.692Z,101464.50
2022-10-11T00:16:40.127Z,101471.72
2022-10-11T00:18:42.087Z,101467.09
2022-10-11T00:20:43.615Z,101477.41
2022-10-11T00:22:45.152Z,101491.00
2022-10-11T00:24:46.636Z,101491.75
2022-10-11T00:26:49.499Z,101489.38
2022-10-11T00:28:52.522Z,101493.25
2022-10-11T00:30:54.229Z,101496.34
2022-10-11T00:32:55.729Z,101498.50
2022-10-11T00:34:57.205Z,101505.56
2022-10-11T00:36:58.523Z,101501.09
2022-10-11T00:39:00.019Z,101498.75
2022-10-11T00:41:01.539Z,101500.59
2022-10-11T00:43:04.344Z,101503.59
2022-10-11T00:45:39.373Z,101505.81
2022-10-11T00:47:41.284Z,101516.28
2022-10-11T00:49:45.817Z,101515.78
2022-10-11T00:51:52.224Z,101516.72
2022-10-11T00:53:54.059Z,101519.25
2022-10-11T00:56:01.495Z,101514.59
2022-10-11T00:58:04.738Z,101511.66
2022-10-11T01:00:09.434Z,101513.78
2022-10-11T01:02:11.551Z,101515.00
2022-10-11T01:04:13.105Z,101522.06
2022-10-11T01:06:14.730Z,101523.78
2022-10-11T01:08:16.300Z,101530.97
2022-10-11T01:10:17.998Z,101537.50
2022-10-11T01:12:23.304Z,101535.91
2022-10-11T01:14:58.787Z,101538.16
2022-10-11T01:17:10.302Z,101541.94
2022-10-11T01:19:35.247Z,101547.44
2022-10-11T01:21:46.615Z,101552.78
2022-10-11T01:24:10.442Z,101556.00
2022-10-11T01:26:34.037Z,101564.00
2022-10-11T01:28:46.462Z,101554.50
2022-10-11T01:30:51.422Z,101560.97
2022-10-11T01:33:06.853Z,101561.28
2022-10-11T01:35:14.794Z,101568.53
2022-10-11T01:37:24.316Z,101572.97
2022-10-11T01:39:31.403Z,101564.41
2022-10-11T01:41:38.293Z,101571.56
2022-10-11T01:43:42.234Z,101573.72
2022-10-11T01:45:45.242Z,101573.44
2022-10-11T01:47:48.032Z,101573.31
2022-10-11T01:49:54.036Z,101575.16
2022-10-11T01:51:59.787Z,101572.56
2022-10-11T01:55:04.062Z,101576.91
2022-10-11T01:57:30.030Z,101581.34
2022-10-11T01:59:47.533Z,101586.38
2022-10-11T02:01:55.961Z,101590.09
2022-10-11T02:04:05.430Z,101585.00
2022-10-11T02:06:12.394Z,101589.75
2022-10-11T02:08:23.888Z,101582.00
2022-10-11T02:10:34.292Z,101592.53
2022-10-11T02:12:41.984Z,101588.25
2022-10-11T02:14:47.630Z,101587.78
2022-10-11T02:16:53.411Z,101591.94
2022-10-11T02:18:56.307Z,101598.19
2022-10-11T02:21:01.326Z,101599.69
2022-10-11T02:23:07.939Z,101592.75
2022-10-11T02:25:13.018Z,101605.38
2022-10-11T02:27:17.324Z,101606.13
2022-10-11T02:29:22.910Z,101606.16
2022-10-11T02:31:25.571Z,101605.25
2022-10-11T02:33:33.761Z,101608.06
2022-10-11T02:35:41.360Z,101605.03
2022-10-11T02:37:51.431Z,101611.38
2022-10-11T02:39:55.113Z,101608.59
2022-10-11T02:42:01.989Z,101611.72
2022-10-11T02:44:08.381Z,101610.56
2022-10-11T02:46:10.927Z,101607.31
2022-10-11T02:48:13.066Z,101619.81
2022-10-11T02:50:15.609Z,101610.41
2022-10-11T02:52:17.223Z,101619.31
2022-10-11T02:54:20.080Z,101619.34
2022-10-11T02:56:21.647Z,101627.63
2022-10-11T02:58:23.969Z,101620.22
2022-10-11T03:00:25.531Z,101623.91
2022-10-11T03:02:27.096Z,101629.41
2022-10-11T03:04:28.647Z,101624.34
2022-10-11T03:06:30.135Z,101634.44
2022-10-11T03:08:31.461Z,101635.69
2022-10-11T03:10:34.321Z,101640.84
2022-10-11T03:12:35.828Z,101647.09
2022-10-11T03:14:37.123Z,101652.03
2022-10-11T03:16:38.606Z,101647.47
2022-10-11T03:18:40.016Z,101652.63
2022-10-11T03:20:41.485Z,101663.09
2022-10-11T03:22:42.809Z,101663.22
2022-10-11T03:24:44.405Z,101659.84
2022-10-11T03:26:47.421Z,101661.59
2022-10-11T03:28:48.993Z,101668.94
2022-10-11T03:30:51.751Z,101676.28
2022-10-11T03:32:53.327Z,101673.56
2022-10-11T03:34:54.806Z,101685.88
2022-10-11T03:36:56.197Z,101685.00
2022-10-11T03:38:59.204Z,101683.16
2022-10-11T03:41:00.742Z,101691.84
2022-10-11T03:43:03.825Z,101682.94
2022-10-11T03:45:07.084Z,101685.50
2022-10-11T03:47:08.787Z,101692.16
2022-10-11T03:49:10.309Z,101697.97
2022-10-11T03:51:11.722Z,101699.13
2022-10-11T03:53:13.175Z,101688.78
2022-10-11T03:55:14.527Z,101695.94
2022-10-11T03:57:16.033Z,101699.22
2022-10-11T03:59:18.766Z,101699.38
2022-10-11T04:01:20.752Z,101703.72
2022-10-11T04:03:22.284Z,101708.13
2022-10-11T04:05:23.608Z,101715.28
2022-10-11T04:07:25.153Z,101716.53
2022-10-11T04:09:26.728Z,101722.47
2022-10-11T04:11:28.193Z,101727.63
2022-10-11T04:13:29.520Z,101726.78
2022-10-11T04:15:32.369Z,101730.72
2022-10-11T04:17:34.191Z,101729.28
2022-10-11T04:19:35.705Z,101734.78
2022-10-11T04:21:37.003Z,101738.56
2022-10-11T04:23:38.457Z,101732.25
2022-10-11T04:25:39.838Z,101738.63
2022-10-11T04:27:41.421Z,101741.94
2022-10-11T04:29:42.945Z,101738.53
2022-10-11T04:31:45.870Z,101737.03
2022-10-11T04:33:47.323Z,101743.22
2022-10-11T04:35:48.677Z,101743.88
2022-10-11T04:37:50.174Z,101751.81
2022-10-11T04:39:51.495Z,101744.47
2022-10-11T04:41:52.985Z,101748.69
2022-10-11T04:43:54.328Z,101749.50
2022-10-11T04:45:55.861Z,101745.34
2022-10-11T04:47:58.544Z,101751.63
2022-10-11T04:50:00.069Z,101755.84
2022-10-11T04:52:01.388Z,101754.25
2022-10-11T04:54:03.008Z,101760.03
2022-10-11T04:56:06.943Z,101758.63
2022-10-11T04:58:08.770Z,101762.88
2022-10-11T05:00:11.541Z,101762.25
2022-10-11T05:02:13.115Z,101765.00
2022-10-11T05:04:15.989Z,101773.66
2022-10-11T05:06:17.574Z,101778.53
2022-10-11T05:08:19.181Z,101781.28
2022-10-11T05:10:20.638Z,101777.38
2022-10-11T05:12:21.943Z,101788.63
2022-10-11T05:14:23.470Z,101784.91
2022-10-11T05:16:24.801Z,101787.00
2022-10-11T05:18:26.346Z,101790.38
2022-10-11T05:20:29.174Z,101787.09
2022-10-11T05:22:30.668Z,101790.97
2022-10-11T05:24:31.984Z,101794.25
2022-10-11T05:26:33.473Z,101795.88
2022-10-11T05:28:34.851Z,101799.44
2022-10-11T05:30:36.334Z,101804.69
2022-10-11T05:32:37.734Z,101817.03
2022-10-11T05:34:39.258Z,101811.91
2022-10-11T05:36:41.975Z,101818.88
2022-10-11T05:38:43.552Z,101816.94
2022-10-11T05:40:45.512Z,101815.31
2022-10-11T05:42:46.989Z,101820.47
2022-10-11T05:44:48.308Z,101830.22
2022-10-11T05:46:49.767Z,101825.75
2022-10-11T05:48:51.067Z,101825.56
2022-10-11T05:50:52.958Z,101825.56
2022-10-11T05:52:55.889Z,101827.94
2022-10-11T05:54:57.420Z,101826.03
2022-10-11T05:56:58.742Z,101828.66
2022-10-11T05:59:02.582Z,101839.00
2022-10-11T06:01:04.388Z,101830.19
2022-10-11T06:03:07.227Z,101838.78
2022-10-11T06:05:09.468Z,101842.38
2022-10-11T06:07:10.981Z,101842.28
2022-10-11T06:09:13.689Z,101846.44
2022-10-11T06:11:17.308Z,101857.94
2022-10-11T06:13:18.770Z,101858.91
2022-10-11T06:15:20.130Z,101857.84
2022-10-11T06:17:21.621Z,101864.72
2022-10-11T06:19:23.091Z,101868.06
2022-10-11T06:21:25.077Z,101863.50
2022-10-11T06:23:26.883Z,101870.50
2022-10-11T06:25:29.763Z,101866.78
2022-10-11T06:27:31.543Z,101877.69
2022-10-11T06:29:51.584Z,101874.16
2022-10-11T06:31:53.012Z,101872.97
2022-10-11T06:33:54.499Z,101881.72
2022-10-11T06:36:00.868Z,101884.91
2022-10-11T06:38:02.352Z,101884.06
2022-10-11T06:40:03.897Z,101886.63
2022-10-11T06:42:06.888Z,101888.06
2022-10-11T06:44:14.054Z,101893.19
2022-10-11T06:46:16.233Z,101888.75
2022-10-11T06:48:17.713Z,101903.81
2022-10-11T06:50:34.913Z,101899.75
2022-10-11T06:52:40.587Z,101901.38
2022-10-11T06:54:44.878Z,101899.09
2022-10-11T06:56:46.678Z,101907.88
2022-10-11T06:58:49.417Z,101907.56
2022-10-11T07:00:50.867Z,101912.44
2022-10-11T07:02:52.165Z,101910.88
2022-10-11T07:04:53.695Z,101916.31
2022-10-11T07:06:55.171Z,101915.97
2022-10-11T07:08:56.624Z,101915.53
2022-10-11T07:11:01.753Z,101921.84
2022-10-11T07:13:03.442Z,101924.44
2022-10-11T07:15:07.483Z,101923.13
2022-10-11T07:17:08.949Z,101923.56
2022-10-11T07:19:10.282Z,101938.66
2022-10-11T07:21:13.802Z,101927.03
2022-10-11T07:23:15.445Z,101928.53
2022-10-11T07:25:17.145Z,101937.34
2022-10-11T07:27:18.689Z,101936.88
2022-10-11T07:29:20.208Z,101935.59
2022-10-11T07:31:24.519Z,101945.63
2022-10-11T07:33:26.061Z,101955.13
2022-10-11T07:35:27.620Z,101946.03
2022-10-11T07:37:29.077Z,101949.44
2022-10-11T07:39:30.384Z,101947.59
2022-10-11T07:41:31.851Z,101949.25
2022-10-11T07:43:33.327Z,101962.53
2022-10-11T07:45:37.272Z,101968.66
2022-10-11T07:47:40.162Z,101960.22
2022-10-11T07:49:41.609Z,101960.97
2022-10-11T07:51:42.919Z,101962.72
2022-10-11T07:53:46.212Z,101963.31
2022-10-11T07:55:47.681Z,101961.28
2022-10-11T07:57:48.966Z,101959.22
2022-10-11T07:59:50.537Z,101965.94
2022-10-11T08:01:52.065Z,101966.66
2022-10-11T08:03:55.322Z,101967.28
2022-10-11T08:05:59.802Z,101967.28
2022-10-11T08:08:01.290Z,101965.16
2022-10-11T08:10:03.005Z,101974.91
2022-10-11T08:12:04.862Z,101978.66
2022-10-11T08:14:07.961Z,101982.41
2022-10-11T08:16:11.041Z,101972.06
2022-10-11T08:18:12.538Z,101976.31
2022-10-11T08:20:15.561Z,101977.78
2022-10-11T08:22:17.359Z,101973.69
2022-10-11T08:24:18.850Z,101981.66
2022-10-11T08:26:20.353Z,101974.13
2022-10-11T08:28:21.873Z,101980.59
2022-10-11T08:30:23.710Z,101978.41
2022-10-11T08:32:25.233Z,101977.25
2022-10-11T08:34:26.803Z,101982.59
2022-10-11T08:36:29.847Z,101984.78
2022-10-11T08:38:31.735Z,101982.44
2022-10-11T08:40:35.366Z,101986.13
2022-10-11T08:42:43.503Z,101985.41
2022-10-11T08:45:10.071Z,101988.31
2022-10-11T08:47:19.805Z,101983.19
2022-10-11T08:49:27.206Z,101988.25
2022-10-11T08:51:35.287Z,101986.25
2022-10-11T08:53:44.836Z,101993.94
2022-10-11T08:55:50.821Z,101990.03
2022-10-11T08:57:54.980Z,101991.91
2022-10-11T08:59:58.691Z,101990.75
2022-10-11T09:02:12.216Z,102004.66
2022-10-11T09:04:14.595Z,101997.13
2022-10-11T09:06:25.979Z,101998.53
2022-10-11T09:08:38.769Z,101996.50
2022-10-11T09:11:00.014Z,102002.16
2022-10-11T09:13:12.614Z,102007.38
2022-10-11T09:15:25.314Z,102008.69
2022-10-11T09:17:41.552Z,102005.50
2022-10-11T09:19:59.879Z,102008.78
2022-10-11T09:22:08.340Z,102001.22
2022-10-11T09:24:30.705Z,102002.59
2022-10-11T09:26:39.930Z,102009.69
2022-10-11T09:28:56.209Z,102003.59
2022-10-11T09:31:01.648Z,102007.22
2022-10-11T09:33:13.068Z,102013.53
2022-10-11T09:35:17.101Z,102008.97
2022-10-11T09:37:24.352Z,102005.81
2022-10-11T09:39:31.633Z,102007.38
2022-10-11T09:41:40.115Z,102006.28
2022-10-11T09:43:45.949Z,102011.00
2022-10-11T09:45:49.653Z,102011.47
2022-10-11T09:47:54.727Z,102012.16
2022-10-11T09:50:00.298Z,102009.13
2022-10-11T09:52:04.404Z,102008.25
2022-10-11T09:54:06.524Z,101998.06
2022-10-11T09:56:09.859Z,102002.97
2022-10-11T09:58:27.165Z,102000.63
2022-10-11T10:00:29.783Z,102002.03
2022-10-11T10:02:40.084Z,102003.44
2022-10-11T10:04:54.714Z,102014.03
2022-10-11T10:07:10.132Z,102009.06
2022-10-11T10:09:35.682Z,102012.28
2022-10-11T10:11:38.635Z,102007.56
2022-10-11T10:13:48.297Z,102009.59
2022-10-11T10:15:52.014Z,102006.72
2022-10-11T10:17:53.822Z,102010.41
2022-10-11T10:19:56.451Z,102002.94
2022-10-11T10:21:58.002Z,102015.59
2022-10-11T10:24:01.731Z,102006.97
2022-10-11T10:26:13.120Z,102015.66
2022-10-11T10:28:22.009Z,102015.38
2022-10-11T10:30:23.597Z,102020.88
2022-10-11T10:32:30.700Z,102011.94
2022-10-11T10:34:36.482Z,102016.09
2022-10-11T10:36:43.224Z,102011.22
2022-10-11T10:38:52.426Z,102015.66
2022-10-11T10:40:56.279Z,102021.09
2022-10-11T10:42:58.185Z,102021.00
2022-10-11T10:45:01.492Z,102016.75
2022-10-11T10:47:10.344Z,102019.00
2022-10-11T10:51:48.096Z,102024.94
2022-10-11T10:53:59.176Z,102012.53
2022-10-11T10:56:06.567Z,102021.34
2022-10-11T10:58:21.644Z,102018.50
2022-10-11T11:00:24.713Z,102011.25
2022-10-11T11:02:40.631Z,102020.94
2022-10-11T11:04:50.394Z,102017.75
2022-10-11T11:06:57.844Z,102016.59
2022-10-11T11:09:13.634Z,102016.00
2022-10-11T11:11:35.421Z,102018.59
2022-10-11T11:13:45.695Z,102010.19
2022-10-11T11:15:55.768Z,102018.84
2022-10-11T11:18:13.759Z,102018.34
2022-10-11T11:20:38.962Z,102018.84
2022-10-11T11:22:49.968Z,102017.81
2022-10-11T11:25:03.631Z,102010.19
2022-10-11T11:27:16.126Z,102007.06
2022-10-11T11:29:29.891Z,101990.28
2022-10-11T11:31:46.578Z,102010.72
2022-10-11T11:33:59.465Z,102004.66
2022-10-11T11:36:05.855Z,102007.44
2022-10-11T11:38:14.569Z,102009.31
2022-10-11T11:40:20.811Z,102003.59
2022-10-11T11:42:26.575Z,102000.63
2022-10-11T11:44:32.469Z,101999.25
2022-10-11T11:46:40.639Z,102001.44
2022-10-11T11:48:43.486Z,102000.75
2022-10-11T11:50:53.136Z,101999.78
2022-10-11T11:52:57.823Z,102000.47
2022-10-11T11:55:08.796Z,102015.13
2022-10-11T11:57:20.484Z,102002.22
2022-10-11T11:59:27.563Z,102005.16
2022-10-11T12:01:36.444Z,101999.75
2022-10-11T12:03:42.597Z,101998.06
2022-10-11T12:06:22.405Z,101993.56
2022-10-11T12:08:27.242Z,101997.88
2022-10-11T12:10:33.760Z,101989.41
2022-10-11T12:12:37.303Z,101994.03
2022-10-11T12:14:40.708Z,101994.03
2022-10-11T12:17:07.896Z,101994.00
2022-10-11T12:19:14.017Z,101988.72
2022-10-11T12:21:22.182Z,101986.53
2022-10-11T12:23:45.639Z,102001.97
2022-10-11T12:26:18.171Z,101999.53
2022-10-11T12:28:46.509Z,101997.53
2022-10-11T12:31:03.167Z,101996.06
2022-10-11T12:33:14.134Z,101998.41
2022-10-11T12:36:05.547Z,101988.53
2022-10-11T12:38:18.315Z,101983.94
2022-10-11T12:40:37.703Z,101994.56
2022-10-11T12:42:45.600Z,102000.00
2022-10-11T12:45:20.752Z,102001.53
2022-10-11T12:47:37.202Z,101995.84
2022-10-11T12:49:55.817Z,102003.59
2022-10-11T12:52:00.517Z,101992.84
2022-10-11T12:54:33.314Z,101996.13
2022-10-11T12:56:48.559Z,102001.47
2022-10-11T12:58:50.122Z,102002.75
2022-10-11T13:01:18.073Z,101996.66
2022-10-11T13:03:32.351Z,101998.59
2022-10-11T13:05:45.057Z,101990.59
2022-10-11T13:07:47.461Z,101993.63
2022-10-11T13:09:53.854Z,101990.09
2022-10-11T13:11:59.295Z,101994.00
2022-10-11T13:14:07.856Z,101992.00
2022-10-11T13:16:13.996Z,101987.06
2022-10-11T13:18:16.849Z,101990.78
2022-10-11T13:20:21.380Z,101989.03
2022-10-11T13:22:23.365Z,101996.06
2022-10-11T13:24:26.450Z,101988.00
2022-10-11T13:26:31.229Z,101994.75
2022-10-11T13:28:36.299Z,101987.31
2022-10-11T13:30:42.323Z,101995.00
2022-10-11T13:32:44.324Z,101994.75
2022-10-11T13:34:48.764Z,101992.53
2022-10-11T13:36:55.609Z,101993.56
2022-10-11T13:38:59.139Z,101995.22
2022-10-11T13:41:05.627Z,101994.44
2022-10-11T13:43:08.653Z,101988.44
2022-10-11T13:45:13.380Z,101994.75
2022-10-11T13:47:17.927Z,101989.03
2022-10-11T13:49:31.795Z,101984.34
2022-10-11T13:51:35.669Z,101972.31
2022-10-11T13:53:37.157Z,101979.13
2022-10-11T13:55:49.943Z,101986.69
2022-10-11T13:57:52.180Z,101980.53
2022-10-11T13:59:55.371Z,101990.25
2022-10-11T14:01:59.224Z,101984.19
2022-10-11T14:04:03.584Z,101978.63
2022-10-11T14:06:05.659Z,101979.25
2022-10-11T14:08:21.562Z,101984.63
2022-10-11T14:10:23.905Z,101986.53
2022-10-11T14:12:29.754Z,101991.31
2022-10-11T14:14:42.534Z,101999.00
2022-10-11T14:16:54.674Z,101994.56
2022-10-11T14:19:08.038Z,101978.50
2022-10-11T14:21:27.813Z,101999.63
2022-10-11T14:23:29.313Z,101999.97
2022-10-11T14:25:30.941Z,101998.56
2022-10-11T14:27:32.471Z,101989.47
2022-10-11T14:29:35.881Z,101997.13
2022-10-11T14:31:41.466Z,102001.78
2022-10-11T14:33:45.099Z,101995.09
2022-10-11T14:35:46.565Z,101990.09
2022-10-11T14:37:48.084Z,101991.44
2022-10-11T14:39:49.786Z,101991.28
2022-10-11T14:41:52.443Z,101988.16
2022-10-11T14:43:53.968Z,101998.88
2022-10-11T14:45:55.429Z,101999.66
2022-10-11T14:47:56.922Z,101995.91
2022-10-11T14:49:59.783Z,101998.41
2022-10-11T14:52:02.404Z,101997.78
2022-10-11T14:54:04.184Z,101997.53
2022-10-11T14:56:07.008Z,101996.81
2022-10-11T14:58:11.086Z,102001.94
2022-10-11T15:00:17.361Z,101994.75
2022-10-11T15:02:18.909Z,101998.56
2022-10-11T15:04:21.162Z,102009.13
2022-10-11T15:06:27.047Z,102007.53
2022-10-11T15:08:28.710Z,102002.66
2022-10-11T15:10:34.107Z,102006.44
2022-10-11T15:12:35.594Z,101998.72
2022-10-11T15:14:37.079Z,101997.84
2022-10-11T15:16:39.055Z,101998.22
2022-10-11T15:18:40.901Z,102007.38
2022-10-11T15:20:44.637Z,101997.28
2022-10-11T15:22:48.013Z,101999.16
2022-10-11T15:24:51.813Z,102000.13
2022-10-11T15:26:53.453Z,101994.75
2022-10-11T15:28:57.381Z,101986.78
2022-10-11T15:30:59.831Z,101994.88
2022-10-11T15:33:01.677Z,101994.16
2022-10-11T15:35:03.193Z,101991.72
2022-10-11T15:37:04.678Z,101990.28
2022-10-11T15:39:26.722Z,101991.16
2022-10-11T15:41:28.390Z,101994.22
2022-10-11T15:43:30.243Z,101986.31
2022-10-11T15:45:31.784Z,101995.41
2022-10-11T15:47:33.328Z,101996.31
2022-10-11T15:49:34.813Z,102001.72
2022-10-11T15:51:36.350Z,101994.69
2022-10-11T15:53:37.844Z,102002.16
2022-10-11T15:55:42.393Z,101998.84
2022-10-11T15:57:43.935Z,101993.84
2022-10-11T15:59:45.480Z,101996.81
2022-10-11T16:01:47.070Z,102005.06
2022-10-11T16:03:49.732Z,102001.47
2022-10-11T16:05:51.922Z,102005.22
2022-10-11T16:07:54.039Z,102006.53
2022-10-11T16:09:55.682Z,102013.03
2022-10-11T16:11:58.557Z,102014.97
2022-10-11T16:14:00.060Z,102017.06
2022-10-11T16:16:02.478Z,102015.63
2022-10-11T16:18:04.282Z,102018.44
2022-10-11T16:20:07.411Z,101986.28
2022-10-11T16:22:08.902Z,102019.91
2022-10-11T16:24:10.358Z,102024.50
2022-10-11T16:26:13.721Z,102022.16
2022-10-11T16:28:16.634Z,102017.22
2022-10-11T16:30:19.585Z,102007.06
2022-10-11T16:32:21.266Z,102024.84
2022-10-11T16:34:22.999Z,102024.97
2022-10-11T16:36:24.523Z,102023.50
2022-10-11T16:38:26.151Z,102026.56
2022-10-11T16:40:28.137Z,102029.31
2022-10-11T16:42:29.711Z,102027.75
2022-10-11T16:44:32.578Z,102035.09
2022-10-11T16:46:34.480Z,102035.41
2022-10-11T16:48:35.971Z,102039.88
2022-10-11T16:50:39.672Z,102035.47
2022-10-11T16:52:41.438Z,102030.31
2022-10-11T16:54:43.747Z,102041.44
2022-10-11T16:56:45.374Z,102034.47
2022-10-11T16:58:47.108Z,102038.81
2022-10-11T17:00:49.983Z,102046.28
2022-10-11T17:02:51.510Z,102043.69
2022-10-11T17:04:53.422Z,102038.47
2022-10-11T17:06:54.928Z,102055.47
2022-10-11T17:08:56.711Z,102037.84
2022-10-11T17:10:58.246Z,102042.19
2022-10-11T17:12:59.707Z,102047.66
2022-10-11T17:15:01.194Z,102043.38
2022-10-11T17:17:05.754Z,102040.06
2022-10-11T17:19:09.691Z,102048.13
2022-10-11T17:21:14.039Z,102049.06
2022-10-11T17:23:15.623Z,102048.50
2022-10-11T17:25:17.227Z,102048.63
2022-10-11T17:27:18.724Z,102049.66
2022-10-11T17:29:20.546Z,102050.59
2022-10-11T17:31:23.169Z,102058.69
2022-10-11T17:33:27.016Z,102063.44
2022-10-11T17:35:31.143Z,102056.47
2022-10-11T17:37:33.638Z,102052.97
2022-10-11T17:39:35.109Z,102054.72
2022-10-11T17:41:36.770Z,102055.66
2022-10-11T17:43:38.780Z,102061.03
2022-10-11T17:45:40.246Z,102061.16
2022-10-11T17:47:41.776Z,102060.28
2022-10-11T17:49:44.615Z,102062.13
2022-10-11T17:51:46.097Z,102064.88
2022-10-11T17:53:48.511Z,102067.81
2022-10-11T17:55:49.978Z,102072.50
2022-10-11T17:57:51.492Z,102063.63
2022-10-11T17:59:53.104Z,102061.72
2022-10-11T18:01:54.749Z,102066.47
2022-10-11T18:03:57.885Z,102063.06
2022-10-11T18:06:02.540Z,102064.91
2022-10-11T18:08:04.100Z,102066.88
2022-10-11T18:10:06.554Z,102069.69
2022-10-11T18:12:08.351Z,102066.00
2022-10-11T18:14:09.891Z,102067.19
2022-10-11T18:16:12.177Z,102055.31
2022-10-11T18:18:13.871Z,102064.81
2022-10-11T18:20:15.491Z,102052.59
2022-10-11T18:22:18.295Z,102064.34
2022-10-11T18:24:19.869Z,102064.44
2022-10-11T18:26:29.397Z,102062.69
2022-10-11T18:28:32.034Z,102073.47
2022-10-11T18:30:33.570Z,102066.50
2022-10-11T18:32:35.523Z,102066.59
2022-10-11T18:34:37.019Z,102058.81
2022-10-11T18:36:39.005Z,102061.50
2022-10-11T18:38:43.466Z,102055.28
2022-10-11T18:40:47.192Z,102059.97
2022-10-11T18:42:48.856Z,102059.97
2022-10-11T18:44:50.368Z,102062.84
2022-10-11T18:46:51.874Z,102056.84
2022-10-11T18:48:55.499Z,102054.84
2022-10-11T18:51:01.920Z,102061.25
2022-10-11T18:55:11.299Z,102060.09
2022-10-11T18:57:12.825Z,102061.06
2022-10-11T18:59:14.768Z,102055.81
2022-10-11T19:01:18.871Z,102055.09
2022-10-11T19:03:20.481Z,102055.16
2022-10-11T19:05:22.038Z,102051.66
2022-10-11T19:07:23.749Z,102056.13
2022-10-11T19:09:25.848Z,102049.00
2022-10-11T19:11:31.083Z,102054.28
2022-10-11T19:13:32.789Z,102054.19
2022-10-11T19:15:35.281Z,102055.25
2022-10-11T19:17:36.772Z,102053.31
2022-10-11T19:19:38.465Z,102049.06
2022-10-11T19:21:40.388Z,102060.72
2022-10-11T19:23:43.945Z,102048.47
2022-10-11T19:25:45.411Z,102053.00
2022-10-11T19:27:48.102Z,102059.31
2022-10-11T19:29:49.544Z,102057.41
2022-10-11T19:31:51.707Z,102053.13
2022-10-11T19:33:53.505Z,102049.50
2022-10-11T19:35:55.336Z,102049.50
2022-10-11T19:37:56.829Z,102047.97
2022-10-11T19:39:58.456Z,102053.38
2022-10-11T19:41:59.907Z,102058.75
2022-10-11T19:44:02.679Z,102056.19
2022-10-11T19:46:06.204Z,102057.19
2022-10-11T19:48:07.823Z,102059.53
2022-10-11T19:50:09.843Z,102060.41
2022-10-11T19:52:11.257Z,102059.63
2022-10-11T19:54:13.578Z,102059.72
2022-10-11T19:56:16.907Z,102065.91
2022-10-11T19:58:18.413Z,102062.53
2022-10-11T20:00:21.267Z,102065.28
2022-10-11T20:02:22.770Z,102061.78
2022-10-11T20:06:45.760Z,102060.91
2022-10-11T20:08:55.931Z,102066.22
2022-10-11T20:11:08.605Z,102058.38
2022-10-11T20:13:10.073Z,102063.72
2022-10-11T20:15:11.571Z,102061.88
2022-10-11T20:17:14.550Z,102061.84
2022-10-11T20:19:16.435Z,102067.09
2022-10-11T20:21:20.130Z,102053.16
2022-10-11T20:23:27.472Z,102064.50
2022-10-11T20:25:29.270Z,102071.63
2022-10-11T20:27:30.886Z,102063.63
2022-10-11T20:29:32.627Z,102060.97
2022-10-11T20:31:35.966Z,102066.28
2022-10-11T20:33:38.813Z,102058.31
2022-10-11T20:35:40.347Z,102061.97
2022-10-11T20:37:41.775Z,102063.78
2022-10-11T20:39:43.108Z,102071.81
2022-10-11T20:41:44.553Z,102066.66
2022-10-11T20:43:46.415Z,102074.59
2022-10-11T20:45:57.871Z,102067.53
2022-10-11T20:47:59.319Z,102078.09
2022-10-11T20:50:02.001Z,102074.59
2022-10-11T20:52:03.624Z,102074.59
2022-10-11T20:54:05.591Z,102071.19
2022-10-11T20:56:08.255Z,102069.53
2022-10-11T20:58:09.741Z,102073.13
2022-10-11T21:00:11.604Z,102068.06
2022-10-11T21:02:18.003Z,102074.28
2022-10-11T21:04:20.585Z,102069.72
2022-10-11T21:06:23.439Z,102071.38
2022-10-11T21:08:24.995Z,102075.03
2022-10-11T21:10:26.541Z,102080.53
2022-10-11T21:12:27.997Z,102077.28
2022-10-11T21:14:29.319Z,102069.56
2022-10-11T21:16:31.560Z,102078.56
2022-10-11T21:18:33.014Z,102083.94
2022-10-11T21:20:37.130Z,102081.38
2022-10-11T21:22:39.970Z,102085.91
2022-10-11T21:24:41.500Z,102082.38
2022-10-11T21:26:43.117Z,102062.34
2022-10-11T21:28:45.601Z,102086.94
2022-10-11T21:30:47.051Z,102086.94
2022-10-11T21:32:48.395Z,102090.56
2022-10-11T21:34:49.867Z,102078.34
2022-10-11T21:36:51.161Z,102096.06
2022-10-11T21:38:54.259Z,102090.81
2022-10-11T21:40:55.757Z,102089.94
2022-10-11T21:42:57.057Z,102089.06
2022-10-11T21:44:58.504Z,102085.31
2022-10-11T21:47:07.095Z,102087.16
2022-10-11T21:49:09.170Z,102090.81
2022-10-11T21:53:19.344Z,102086.53
2022-10-11T21:55:22.150Z,102092.94
2022-10-11T21:57:23.608Z,102091.25
2022-10-11T21:59:25.009Z,102082.47
2022-10-11T22:01:26.606Z,102085.81
2022-10-11T22:03:28.116Z,102084.06
2022-10-11T22:05:29.402Z,102078.81
2022-10-11T22:07:30.818Z,102087.66
2022-10-11T22:09:32.238Z,102087.91
2022-10-11T22:11:35.321Z,102085.25
2022-10-11T22:13:37.389Z,102081.75
2022-10-11T22:15:39.294Z,102084.50
2022-10-11T22:17:40.819Z,102076.56
2022-10-11T22:19:42.126Z,102083.59
2022-10-11T22:21:45.187Z,102082.72
2022-10-11T22:23:51.053Z,102081.91
2022-10-11T22:25:52.486Z,102088.09
2022-10-11T22:27:55.116Z,102079.38
2022-10-11T22:29:56.644Z,102079.50
2022-10-11T22:31:58.090Z,102080.34
2022-10-11T22:34:00.268Z,102088.31
2022-10-11T22:36:04.172Z,102075.81
2022-10-11T22:38:05.932Z,102075.81
2022-10-11T22:40:08.488Z,102074.94
2022-10-11T22:42:10.028Z,102081.25
2022-10-11T22:44:12.926Z,102069.84
2022-10-11T22:46:14.367Z,102075.16
2022-10-11T22:48:15.745Z,102067.13
2022-10-11T22:50:17.512Z,102063.69
2022-10-11T22:52:19.014Z,102070.72
2022-10-11T22:54:20.370Z,102074.19
2022-10-11T22:56:21.847Z,102075.94
2022-10-11T22:58:23.151Z,102067.06
2022-10-11T23:00:26.128Z,102064.50
2022-10-11T23:02:27.576Z,102069.84
2022-10-11T23:04:28.903Z,102079.50
2022-10-11T23:06:30.411Z,102075.22
2022-10-11T23:08:31.708Z,102079.75
2022-10-11T23:10:33.165Z,102072.69
2022-10-11T23:12:34.545Z,102076.19
2022-10-11T23:14:35.963Z,102077.00
2022-10-11T23:16:38.807Z,102075.16
2022-10-11T23:18:40.620Z,102074.13
2022-10-11T23:20:42.069Z,102085.69
2022-10-11T23:22:43.352Z,102081.22
2022-10-11T23:24:44.950Z,102081.13
2022-10-11T23:26:46.417Z,102075.81
2022-10-11T23:28:47.805Z,102084.81
2022-10-11T23:30:49.324Z,102084.00
2022-10-11T23:32:51.957Z,102081.38
2022-10-11T23:34:53.421Z,102083.09
2022-10-11T23:36:54.803Z,102088.47
2022-10-11T23:38:58.447Z,102086.72
2022-10-11T23:40:59.920Z,102088.56
2022-10-11T23:43:01.264Z,102090.50
2022-10-11T23:45:02.892Z,102099.44
2022-10-11T23:47:04.351Z,102093.19
2022-10-11T23:49:07.034Z,102099.53
2022-10-11T23:51:08.773Z,102087.22